Time,TemperatureF,DewpointF,PressureIn,WindDirection,WindDirectionDegrees,WindSpeedMPH,WindSpeedGustMPH,Humidity,HourlyPrecipIn,Conditions,Clouds,dailyrainin,SolarRadiationWatts/m^2,SoftwareType,DateUTC
2013-06-02 00:11:00,90.0,46.0,-100.00,SSW,193,6.0,10.0,22,0.00,,,0.00,0.000000,,2013-06-02 07:11:00,
2013-06-02 00:21:00,90.0,46.0,-100.00,SSW,193,6.0,10.0,22,0.00,,,0.00,0.000000,,2013-06-02 07:21:00,
2013-06-02 00:31:00,90.0,46.0,-100.00,SSW,193,6.0,10.0,22,0.00,,,0.00,0.000000,,2013-06-02 07:31:00,
2013-06-02 00:42:00,90.0,46.0,-100.00,SSW,193,6.0,10.0,22,0.00,,,0.00,0.000000,,2013-06-02 07:42:00,
2013-06-02 01:11:00,81.0,47.0,-100.00,South,175,3.0,9.0,31,0.00,,,0.00,0.000000,,2013-06-02 08:11:00,
2013-06-02 01:41:00,81.0,47.0,-100.00,South,175,3.0,9.0,31,0.00,,,0.00,0.000000,,2013-06-02 08:41:00,
2013-06-02 02:11:00,85.0,46.0,-100.00,South,181,5.0,7.0,26,0.00,,,0.00,0.000000,,2013-06-02 09:11:00,
2013-06-02 02:21:00,85.0,46.0,-100.00,South,181,5.0,7.0,26,0.00,,,0.00,0.000000,,2013-06-02 09:21:00,
2013-06-02 02:33:00,85.0,46.0,-100.00,South,181,5.0,7.0,26,0.00,,,0.00,0.000000,,2013-06-02 09:33:00,
2013-06-02 02:42:00,85.0,46.0,-100.00,South,181,5.0,7.0,26,0.00,,,0.00,0.000000,,2013-06-02 09:42:00,
2013-06-02 03:12:00,81.0,44.0,-100.00,SSW,209,5.0,6.0,27,0.00,,,0.00,0.000000,,2013-06-02 10:12:00,
2013-06-02 03:22:00,81.0,44.0,-100.00,SSW,209,5.0,6.0,27,0.00,,,0.00,0.000000,,2013-06-02 10:22:00,
2013-06-02 03:32:00,81.0,44.0,-100.00,SSW,209,5.0,6.0,27,0.00,,,0.00,0.000000,,2013-06-02 10:32:00,
2013-06-02 03:41:00,81.0,44.0,-100.00,SSW,209,5.0,6.0,27,0.00,,,0.00,0.000000,,2013-06-02 10:41:00,
2013-06-02 04:12:00,76.0,46.0,-100.00,SSE,163,4.0,6.0,35,0.00,,,0.00,0.000000,,2013-06-02 11:12:00,
2013-06-02 04:21:00,76.0,46.0,-100.00,SSE,163,4.0,6.0,35,0.00,,,0.00,0.000000,,2013-06-02 11:21:00,
2013-06-02 04:42:00,76.0,46.0,-100.00,SSE,163,4.0,6.0,35,0.00,,,0.00,0.000000,,2013-06-02 11:42:00,
2013-06-02 05:11:00,77.0,45.0,-100.00,SW,217,4.0,8.0,32,0.00,,,0.00,0.000000,,2013-06-02 12:11:00,
2013-06-02 05:21:00,77.0,45.0,-100.00,SW,217,4.0,8.0,32,0.00,,,0.00,0.000000,,2013-06-02 12:21:00,
2013-06-02 05:31:00,77.0,45.0,-100.00,SW,217,4.0,8.0,32,0.00,,,0.00,0.000000,,2013-06-02 12:31:00,
2013-06-02 05:42:00,77.0,45.0,-100.00,SW,217,4.0,8.0,32,0.00,,,0.00,0.000000,,2013-06-02 12:42:00,
2013-06-02 06:11:00,73.0,42.0,-100.00,SW,228,5.0,6.0,33,0.00,,,0.00,5.000000,,2013-06-02 13:11:00,
2013-06-02 06:21:00,73.0,42.0,-100.00,SW,228,5.0,6.0,33,0.00,,,0.00,5.000000,,2013-06-02 13:21:00,
2013-06-02 06:32:00,73.0,42.0,-100.00,SW,228,5.0,6.0,33,0.00,,,0.00,5.000000,,2013-06-02 13:32:00,
2013-06-02 07:11:00,76.0,50.0,-100.00,SSE,166,3.0,6.0,40,-99.99,,,0.00,116.000000,,2013-06-02 14:11:00,
2013-06-02 07:21:00,76.0,50.0,-100.00,SSE,166,3.0,6.0,40,-99.99,,,0.00,116.000000,,2013-06-02 14:21:00,
2013-06-02 07:32:00,76.0,50.0,-100.00,SSE,166,3.0,6.0,40,-99.99,,,0.00,116.000000,,2013-06-02 14:32:00,
2013-06-02 07:41:00,76.0,50.0,-100.00,SSE,166,3.0,6.0,40,-99.99,,,0.00,116.000000,,2013-06-02 14:41:00,
2013-06-02 08:11:00,87.0,52.0,-100.00,SSE,164,5.0,9.0,30,-99.99,,,0.00,331.000000,,2013-06-02 15:11:00,
2013-06-02 08:21:00,87.0,52.0,-100.00,SSE,164,5.0,9.0,30,-99.99,,,0.00,331.000000,,2013-06-02 15:21:00,
2013-06-02 08:32:00,87.0,52.0,-100.00,SSE,164,5.0,9.0,30,-99.99,,,0.00,331.000000,,2013-06-02 15:32:00,
2013-06-02 08:42:00,87.0,52.0,-100.00,SSE,164,5.0,9.0,30,-99.99,,,0.00,331.000000,,2013-06-02 15:42:00,
2013-06-02 09:13:00,93.0,43.0,-100.00,SSE,168,9.0,14.0,18,0.00,,,-99.99,567.000000,,2013-06-02 16:13:00,
2013-06-02 09:23:00,93.0,43.0,-100.00,SSE,168,9.0,14.0,18,0.00,,,-99.99,567.000000,,2013-06-02 16:23:00,
2013-06-02 09:33:00,93.0,43.0,-100.00,SSE,168,9.0,14.0,18,0.00,,,-99.99,567.000000,,2013-06-02 16:33:00,
2013-06-02 09:42:00,93.0,43.0,-100.00,SSE,168,9.0,14.0,18,0.00,,,-99.99,567.000000,,2013-06-02 16:42:00,
2013-06-02 10:12:00,96.0,44.0,-100.00,SSE,157,11.0,16.0,17,0.00,,,0.00,779.000000,,2013-06-02 17:12:00,
2013-06-02 10:22:00,96.0,44.0,-100.00,SSE,157,11.0,16.0,17,0.00,,,0.00,779.000000,,2013-06-02 17:22:00,
2013-06-02 10:32:00,96.0,44.0,-100.00,SSE,157,11.0,16.0,17,0.00,,,0.00,779.000000,,2013-06-02 17:32:00,
2013-06-02 10:42:00,96.0,44.0,-100.00,SSE,157,11.0,16.0,17,0.00,,,0.00,779.000000,,2013-06-02 17:42:00,
2013-06-02 11:11:00,99.0,43.0,-100.00,SSE,164,9.0,17.0,15,0.00,,,0.00,947.000000,,2013-06-02 18:11:00,
2013-06-02 11:21:00,99.0,43.0,-100.00,SSE,164,9.0,17.0,15,0.00,,,0.00,947.000000,,2013-06-02 18:21:00,
2013-06-02 11:32:00,99.0,43.0,-100.00,SSE,164,9.0,17.0,15,0.00,,,0.00,947.000000,,2013-06-02 18:32:00,
2013-06-02 11:42:00,99.0,43.0,-100.00,SSE,164,9.0,17.0,15,0.00,,,0.00,947.000000,,2013-06-02 18:42:00,
2013-06-02 12:11:00,102.0,44.0,-100.00,SE,143,9.0,15.0,14,0.00,,,0.00,1058.000000,,2013-06-02 19:11:00,
2013-06-02 12:21:00,102.0,44.0,-100.00,SE,143,9.0,15.0,14,0.00,,,0.00,1058.000000,,2013-06-02 19:21:00,
2013-06-02 12:32:00,102.0,44.0,-100.00,SE,143,9.0,15.0,14,0.00,,,0.00,1058.000000,,2013-06-02 19:32:00,
2013-06-02 12:41:00,102.0,44.0,-100.00,SE,143,9.0,15.0,14,0.00,,,0.00,1058.000000,,2013-06-02 19:41:00,
2013-06-02 13:11:00,104.0,45.0,-100.00,South,169,10.0,15.0,14,0.00,,,0.00,1101.000000,,2013-06-02 20:11:00,
2013-06-02 13:21:00,104.0,45.0,-100.00,South,169,10.0,15.0,14,0.00,,,0.00,1101.000000,,2013-06-02 20:21:00,
2013-06-02 13:32:00,104.0,45.0,-100.00,South,169,10.0,15.0,14,0.00,,,0.00,1101.000000,,2013-06-02 20:32:00,
2013-06-02 13:42:00,104.0,45.0,-100.00,South,169,10.0,15.0,14,0.00,,,0.00,1101.000000,,2013-06-02 20:42:00,
2013-06-02 14:11:00,106.0,45.0,-100.00,SSE,152,9.0,16.0,13,0.00,,,0.00,1084.000000,,2013-06-02 21:11:00,
2013-06-02 14:21:00,106.0,45.0,-100.00,SSE,152,9.0,16.0,13,0.00,,,0.00,1084.000000,,2013-06-02 21:21:00,
2013-06-02 14:33:00,106.0,45.0,-100.00,SSE,152,9.0,16.0,13,0.00,,,0.00,1084.000000,,2013-06-02 21:33:00,
2013-06-02 14:42:00,106.0,45.0,-100.00,SSE,152,9.0,16.0,13,0.00,,,0.00,1084.000000,,2013-06-02 21:42:00,
2013-06-02 15:12:00,106.0,47.0,-100.00,SSE,157,11.0,19.0,14,0.00,,,0.00,1003.000000,,2013-06-02 22:12:00,
2013-06-02 15:23:00,106.0,47.0,-100.00,SSE,157,11.0,19.0,14,0.00,,,0.00,1003.000000,,2013-06-02 22:23:00,
2013-06-02 15:33:00,106.0,47.0,-100.00,SSE,157,11.0,19.0,14,0.00,,,0.00,1003.000000,,2013-06-02 22:33:00,
2013-06-02 15:42:00,106.0,47.0,-100.00,SSE,157,11.0,19.0,14,0.00,,,0.00,1003.000000,,2013-06-02 22:42:00,
2013-06-02 16:12:00,106.0,47.0,-100.00,SSE,161,10.0,16.0,14,0.00,,,0.00,862.000000,,2013-06-02 23:12:00,
2013-06-02 16:22:00,106.0,47.0,-100.00,SSE,161,10.0,16.0,14,0.00,,,0.00,862.000000,,2013-06-02 23:22:00,
2013-06-02 16:32:00,106.0,47.0,-100.00,SSE,161,10.0,16.0,14,0.00,,,0.00,862.000000,,2013-06-02 23:32:00,
2013-06-02 16:42:00,106.0,47.0,-100.00,SSE,161,10.0,16.0,14,0.00,,,0.00,862.000000,,2013-06-02 23:42:00,
2013-06-02 17:11:00,105.0,44.0,-100.00,SSE,160,12.0,21.0,13,0.00,,,0.00,668.000000,,2013-06-03 00:11:00,
2013-06-02 17:21:00,105.0,44.0,-100.00,SSE,160,12.0,21.0,13,0.00,,,0.00,668.000000,,2013-06-03 00:21:00,
2013-06-02 17:32:00,105.0,44.0,-100.00,SSE,160,12.0,21.0,13,0.00,,,0.00,668.000000,,2013-06-03 00:32:00,
2013-06-02 17:42:00,105.0,44.0,-100.00,SSE,160,12.0,21.0,13,0.00,,,0.00,668.000000,,2013-06-03 00:42:00,
2013-06-02 18:11:00,104.0,41.0,-100.00,South,170,10.0,20.0,12,0.00,,,0.00,437.000000,,2013-06-03 01:11:00,
2013-06-02 18:21:00,104.0,41.0,-100.00,South,170,10.0,20.0,12,0.00,,,0.00,437.000000,,2013-06-03 01:21:00,
2013-06-02 18:32:00,104.0,41.0,-100.00,South,170,10.0,20.0,12,0.00,,,0.00,437.000000,,2013-06-03 01:32:00,
2013-06-02 18:42:00,104.0,41.0,-100.00,South,170,10.0,20.0,12,0.00,,,0.00,437.000000,,2013-06-03 01:42:00,
2013-06-02 19:12:00,101.0,41.0,-100.00,SE,146,10.0,19.0,13,0.00,,,0.00,216.000000,,2013-06-03 02:12:00,
2013-06-02 19:22:00,101.0,41.0,-100.00,SE,146,10.0,19.0,13,0.00,,,0.00,216.000000,,2013-06-03 02:22:00,
2013-06-02 19:32:00,101.0,41.0,-100.00,SE,146,10.0,19.0,13,0.00,,,0.00,216.000000,,2013-06-03 02:32:00,
2013-06-02 19:42:00,101.0,41.0,-100.00,SE,146,10.0,19.0,13,0.00,,,0.00,216.000000,,2013-06-03 02:42:00,
2013-06-02 20:12:00,96.0,39.0,-100.00,SSE,157,8.0,13.0,14,0.00,,,0.00,44.000000,,2013-06-03 03:12:00,
2013-06-02 20:22:00,96.0,39.0,-100.00,SSE,157,8.0,13.0,14,0.00,,,0.00,44.000000,,2013-06-03 03:22:00,
2013-06-02 20:33:00,96.0,39.0,-100.00,SSE,157,8.0,13.0,14,0.00,,,0.00,44.000000,,2013-06-03 03:33:00,
2013-06-02 20:43:00,96.0,39.0,-100.00,SSE,157,8.0,13.0,14,0.00,,,0.00,44.000000,,2013-06-03 03:43:00,
2013-06-02 21:12:00,92.0,39.0,-100.00,SE,141,7.0,14.0,16,0.00,,,0.00,0.000000,,2013-06-03 04:12:00,
2013-06-02 21:23:00,92.0,39.0,-100.00,SE,141,7.0,14.0,16,0.00,,,0.00,0.000000,,2013-06-03 04:23:00,
2013-06-02 21:33:00,92.0,39.0,-100.00,SE,141,7.0,14.0,16,0.00,,,0.00,0.000000,,2013-06-03 04:33:00,
2013-06-02 21:42:00,92.0,39.0,-100.00,SE,141,7.0,14.0,16,0.00,,,0.00,0.000000,,2013-06-03 04:42:00,
2013-06-02 22:12:00,86.0,40.0,-100.00,South,183,4.0,9.0,20,0.00,,,0.00,0.000000,,2013-06-03 05:12:00,
2013-06-02 23:12:00,84.0,41.0,-100.00,South,180,2.0,6.0,22,-99.99,,,0.00,0.000000,,2013-06-03 06:12:00,